Time;durP1;ratioP1;P1;durP2;ratioP2;P2;SDS_P1;SDS_P2;PMS_P1;PMS_P2;Temp;Humidity;BMP_temperature;BMP_pressure;BME280_temperature;BME280_humidity;BME280_pressure;Samples;Min_cycle;Max_cycle;Signal;HPM_P1;HPM_P2
2023/07/12 00:00:25;;;;;;;;;;;22.00;99.90;;;;;;7330121;19;110439;-66
2023/07/12 00:02:52;;;;;;;;;;;22.00;99.90;;;;;;7331189;19;108405;-66
2023/07/12 00:05:19;;;;;;;;;;;22.00;99.90;;;;;;7333709;19;109863;-66
2023/07/12 00:07:47;;;;;;;;;;;22.00;99.90;;;;;;7333306;19;110706;-66
2023/07/12 00:10:16;;;;;;;;;;;22.00;99.90;;;;;;7330097;19;109668;-66
2023/07/12 00:12:43;;;;;;;;;;;22.00;99.90;;;;;;7332762;19;109064;-66
2023/07/12 00:15:11;;;;;;;;;;;22.00;99.90;;;;;;7329457;19;108730;-68
2023/07/12 00:17:38;;;;;;;;;;;21.90;99.90;;;;;;7334165;19;109510;-67
2023/07/12 00:20:17;;;;;;;;;;;21.80;99.90;;;;;;7331477;19;110255;-67
2023/07/12 00:22:45;;;;;;;;;;;21.90;99.90;;;;;;7329884;19;108474;-66
2023/07/12 00:25:16;;;;;;;;;;;21.80;99.90;;;;;;7329599;19;111344;-66
2023/07/12 00:27:43;;;;;;;;;;;21.80;99.90;;;;;;7336848;19;109087;-67
2023/07/12 00:30:13;;;;;;;;;;;21.80;99.90;;;;;;7329070;19;110348;-66
2023/07/12 00:32:40;;;;;;;;;;;21.80;99.90;;;;;;7329996;19;109264;-66
2023/07/12 00:35:07;;;;;;;;;;;21.70;99.90;;;;;;7325386;19;109725;-67
2023/07/12 00:37:35;;;;;;;;;;;21.80;99.90;;;;;;7325847;19;109255;-67
2023/07/12 00:40:02;;;;;;;;;;;21.70;99.90;;;;;;7332181;19;110085;-66
2023/07/12 00:42:34;;;;;;;;;;;21.70;99.90;;;;;;7335213;19;108636;-64
2023/07/12 00:45:03;;;;;;;;;;;21.70;99.90;;;;;;7330654;19;108891;-71
2023/07/12 00:47:31;;;;;;;;;;;21.70;99.90;;;;;;7331329;19;109503;-72
2023/07/12 00:50:00;;;;;;;;;;;21.60;99.90;;;;;;7335843;19;108869;-67
2023/07/12 00:52:29;;;;;;;;;;;21.60;99.90;;;;;;7334036;19;109500;-75
2023/07/12 00:54:56;;;;;;;;;;;21.50;99.90;;;;;;7337729;19;108776;-70
2023/07/12 00:57:28;;;;;;;;;;;21.50;99.90;;;;;;7334771;19;108795;-69
2023/07/12 01:00:10;;;;;;;;;;;21.40;99.90;;;;;;7328428;19;109779;-68
2023/07/12 01:02:42;;;;;;;;;;;21.30;99.90;;;;;;7332702;19;109759;-66
2023/07/12 01:05:11;;;;;;;;;;;21.20;99.90;;;;;;7336471;19;110218;-67
2023/07/12 01:07:38;;;;;;;;;;;21.20;99.90;;;;;;7337419;19;109729;-66
2023/07/12 01:10:08;;;;;;;;;;;21.10;99.90;;;;;;7338957;19;109175;-67
2023/07/12 01:12:35;;;;;;;;;;;21.10;99.90;;;;;;7343573;19;109810;-66
2023/07/12 01:15:02;;;;;;;;;;;21.10;99.90;;;;;;7339201;19;109918;-66
2023/07/12 01:17:29;;;;;;;;;;;20.90;99.90;;;;;;7335863;19;109673;-66
2023/07/12 01:19:57;;;;;;;;;;;20.90;99.90;;;;;;7339609;19;109177;-66
2023/07/12 01:22:24;;;;;;;;;;;20.80;99.90;;;;;;7333102;19;111271;-66
2023/07/12 01:24:51;;;;;;;;;;;20.80;99.90;;;;;;7338109;19;108978;-66
2023/07/12 01:27:20;;;;;;;;;;;20.80;99.90;;;;;;7333500;19;111034;-66
2023/07/12 01:29:48;;;;;;;;;;;20.70;99.90;;;;;;7335520;19;109158;-66
2023/07/12 01:32:15;;;;;;;;;;;20.70;99.90;;;;;;7338388;19;108753;-67
2023/07/12 01:34:42;;;;;;;;;;;20.70;99.90;;;;;;7336117;19;109600;-66
2023/07/12 01:37:13;;;;;;;;;;;20.60;99.90;;;;;;7336191;19;109598;-66
2023/07/12 01:39:40;;;;;;;;;;;20.50;99.90;;;;;;7335954;19;109098;-66
2023/07/12 01:42:07;;;;;;;;;;;20.40;99.90;;;;;;7334608;19;111171;-66
2023/07/12 01:44:35;;;;;;;;;;;20.30;99.90;;;;;;7335462;19;109206;-66
2023/07/12 01:47:02;;;;;;;;;;;20.10;99.90;;;;;;7332403;19;110529;-66
2023/07/12 01:49:29;;;;;;;;;;;20.10;99.90;;;;;;7333623;19;110645;-66
2023/07/12 01:51:57;;;;;;;;;;;20.00;99.90;;;;;;7333034;19;108679;-66
2023/07/12 01:54:24;;;;;;;;;;;20.00;99.90;;;;;;7331003;19;110182;-66
2023/07/12 01:56:52;;;;;;;;;;;20.00;99.90;;;;;;7341543;19;108702;-67
2023/07/12 01:59:19;;;;;;;;;;;20.10;99.90;;;;;;7333925;19;111019;-66
2023/07/12 02:01:46;;;;;;;;;;;20.10;99.90;;;;;;7334568;19;110397;-66
2023/07/12 02:04:13;;;;;;;;;;;20.10;99.90;;;;;;7330507;19;110160;-66
2023/07/12 02:06:40;;;;;;;;;;;20.10;99.90;;;;;;7334791;19;110806;-66
2023/07/12 02:09:07;;;;;;;;;;;20.10;99.90;;;;;;7332464;19;110121;-66
2023/07/12 02:11:34;;;;;;;;;;;20.20;99.90;;;;;;7332033;19;111053;-65
2023/07/12 02:14:01;;;;;;;;;;;20.10;99.90;;;;;;7336115;19;109621;-66
2023/07/12 02:16:28;;;;;;;;;;;20.10;99.90;;;;;;7336814;19;109220;-66
2023/07/12 02:18:55;;;;;;;;;;;20.10;99.90;;;;;;7337883;19;108658;-66
2023/07/12 02:21:22;;;;;;;;;;;20.10;99.90;;;;;;7335558;19;109173;-66
2023/07/12 02:23:51;;;;;;;;;;;20.10;99.90;;;;;;7334686;19;109159;-66
2023/07/12 02:26:19;;;;;;;;;;;20.00;99.90;;;;;;7334895;19;110490;-70
2023/07/12 02:28:47;;;;;;;;;;;20.00;99.90;;;;;;7335092;19;109860;-66
2023/07/12 02:31:18;;;;;;;;;;;20.00;99.90;;;;;;7332330;19;112074;-66
2023/07/12 02:33:46;;;;;;;;;;;20.00;99.90;;;;;;7334779;19;110040;-66
2023/07/12 02:36:13;;;;;;;;;;;20.10;99.90;;;;;;7334597;19;109058;-67
2023/07/12 02:38:40;;;;;;;;;;;20.00;99.90;;;;;;7337077;19;109107;-68
2023/07/12 02:41:07;;;;;;;;;;;20.00;99.90;;;;;;7338235;19;108462;-66
2023/07/12 02:43:35;;;;;;;;;;;20.00;99.90;;;;;;7335039;19;108758;-66
2023/07/12 02:46:03;;;;;;;;;;;20.00;99.90;;;;;;7334002;19;109913;-66
2023/07/12 02:48:30;;;;;;;;;;;20.00;99.90;;;;;;7334070;19;109195;-66
2023/07/12 02:50:57;;;;;;;;;;;20.00;99.90;;;;;;7333956;19;108604;-67
2023/07/12 02:53:24;;;;;;;;;;;20.00;99.90;;;;;;7332896;19;110101;-66
2023/07/12 02:55:51;;;;;;;;;;;19.90;99.90;;;;;;7338023;19;108782;-66
2023/07/12 02:58:18;;;;;;;;;;;19.90;99.90;;;;;;7332031;19;109556;-68
2023/07/12 03:00:46;;;;;;;;;;;19.90;99.90;;;;;;7338657;19;109225;-68
2023/07/12 03:03:14;;;;;;;;;;;19.90;99.90;;;;;;7329681;19;110039;-68
2023/07/12 03:05:41;;;;;;;;;;;19.90;99.90;;;;;;7333345;19;109189;-68
2023/07/12 03:08:11;;;;;;;;;;;19.90;99.90;;;;;;7331745;19;109888;-67
2023/07/12 03:10:39;;;;;;;;;;;19.90;99.90;;;;;;7333367;19;109078;-68
2023/07/12 03:13:06;;;;;;;;;;;19.90;99.90;;;;;;7334828;19;109668;-68
2023/07/12 03:15:36;;;;;;;;;;;19.90;99.90;;;;;;7335808;19;108711;-67
2023/07/12 03:18:03;;;;;;;;;;;19.80;99.90;;;;;;7330844;19;109505;-66
2023/07/12 03:20:33;;;;;;;;;;;19.80;99.90;;;;;;7335894;19;109825;-67
2023/07/12 03:23:00;;;;;;;;;;;19.80;99.90;;;;;;7340426;19;108661;-66
2023/07/12 03:25:27;;;;;;;;;;;19.80;99.90;;;;;;7331963;19;112663;-67
2023/07/12 03:27:56;;;;;;;;;;;19.80;99.90;;;;;;7335873;19;109895;-68
2023/07/12 03:30:24;;;;;;;;;;;19.80;99.90;;;;;;7332092;19;108517;-67
2023/07/12 03:32:51;;;;;;;;;;;19.70;99.90;;;;;;7331899;19;109196;-67
2023/07/12 03:35:18;;;;;;;;;;;19.70;99.90;;;;;;7333691;19;109906;-67
2023/07/12 03:37:45;;;;;;;;;;;19.70;99.90;;;;;;7333317;19;108924;-67
2023/07/12 03:40:13;;;;;;;;;;;19.70;99.90;;;;;;7333772;19;109078;-68
2023/07/12 03:42:40;;;;;;;;;;;19.70;99.90;;;;;;7333731;19;111685;-67
2023/07/12 03:45:07;;;;;;;;;;;19.70;99.90;;;;;;7339843;19;108591;-67
2023/07/12 03:47:35;;;;;;;;;;;19.60;99.90;;;;;;7331662;19;108615;-67
2023/07/12 03:50:02;;;;;;;;;;;19.60;99.90;;;;;;7328978;19;109259;-67
2023/07/12 03:52:29;;;;;;;;;;;19.60;99.90;;;;;;7330532;19;110553;-67
2023/07/12 03:54:56;;;;;;;;;;;19.60;99.90;;;;;;7334596;19;109286;-67
2023/07/12 03:57:23;;;;;;;;;;;19.50;99.90;;;;;;7330558;19;108974;-68
2023/07/12 03:59:51;;;;;;;;;;;19.50;99.90;;;;;;7333408;19;109137;-67
2023/07/12 04:02:18;;;;;;;;;;;19.50;99.90;;;;;;7332372;19;109789;-67
2023/07/12 04:04:45;;;;;;;;;;;19.50;99.90;;;;;;7331864;19;108757;-67
2023/07/12 04:07:12;;;;;;;;;;;19.50;99.90;;;;;;7332408;19;110102;-67
2023/07/12 04:09:39;;;;;;;;;;;19.50;99.90;;;;;;7332112;19;109440;-67
2023/07/12 04:12:06;;;;;;;;;;;19.40;99.90;;;;;;7327541;19;109368;-68
2023/07/12 04:14:33;;;;;;;;;;;19.40;99.90;;;;;;7329129;19;110568;-67
2023/07/12 04:17:00;;;;;;;;;;;19.40;99.90;;;;;;7333180;19;109831;-68
2023/07/12 04:19:28;;;;;;;;;;;19.40;99.90;;;;;;7330234;19;109152;-69
2023/07/12 04:21:55;;;;;;;;;;;19.40;99.90;;;;;;7330504;19;108741;-68
2023/07/12 04:24:22;;;;;;;;;;;19.40;99.90;;;;;;7332730;19;111137;-68
2023/07/12 04:26:49;;;;;;;;;;;19.40;99.90;;;;;;7328599;19;109171;-68
2023/07/12 04:29:16;;;;;;;;;;;19.40;99.90;;;;;;7337273;19;108735;-68
2023/07/12 04:31:43;;;;;;;;;;;19.40;99.90;;;;;;7333841;19;109873;-68
2023/07/12 04:34:10;;;;;;;;;;;19.40;99.90;;;;;;7328516;19;110123;-69
2023/07/12 04:36:43;;;;;;;;;;;19.40;99.90;;;;;;7333122;19;109387;-68
2023/07/12 04:39:10;;;;;;;;;;;19.50;99.90;;;;;;7327371;19;111701;-67
2023/07/12 04:41:37;;;;;;;;;;;19.50;99.90;;;;;;7333783;19;110318;-68
2023/07/12 04:44:04;;;;;;;;;;;19.50;99.90;;;;;;7329319;19;109627;-68
2023/07/12 04:46:31;;;;;;;;;;;19.50;99.90;;;;;;7328922;19;110180;-68
2023/07/12 04:48:58;;;;;;;;;;;19.50;99.90;;;;;;7338373;19;108977;-67
2023/07/12 04:51:25;;;;;;;;;;;19.50;99.90;;;;;;7331680;19;110111;-68
2023/07/12 04:53:52;;;;;;;;;;;19.50;99.90;;;;;;7331377;19;109207;-68
2023/07/12 04:56:20;;;;;;;;;;;19.50;99.90;;;;;;7326501;19;109356;-67
2023/07/12 04:58:47;;;;;;;;;;;19.50;99.90;;;;;;7330927;19;109622;-68
2023/07/12 05:01:14;;;;;;;;;;;19.50;99.90;;;;;;7328599;19;109694;-68
2023/07/12 05:03:41;;;;;;;;;;;19.50;99.90;;;;;;7333350;19;110473;-67
2023/07/12 05:06:08;;;;;;;;;;;19.50;99.90;;;;;;7327483;19;109144;-68
2023/07/12 05:08:49;;;;;;;;;;;19.50;99.90;;;;;;7329209;19;108512;-67
2023/07/12 05:11:16;;;;;;;;;;;19.50;99.90;;;;;;7336519;19;108468;-68
2023/07/12 05:13:43;;;;;;;;;;;19.50;99.90;;;;;;7329102;19;108936;-68
2023/07/12 05:16:13;;;;;;;;;;;19.60;99.90;;;;;;7332908;19;108617;-67
2023/07/12 05:18:41;;;;;;;;;;;19.60;99.90;;;;;;7332051;19;109432;-73
2023/07/12 05:21:08;;;;;;;;;;;19.60;99.90;;;;;;7330959;19;109113;-70
2023/07/12 05:23:36;;;;;;;;;;;19.60;99.90;;;;;;7332359;19;110418;-73
2023/07/12 05:26:04;;;;;;;;;;;19.60;99.90;;;;;;7330628;19;109663;-78
2023/07/12 05:28:31;;;;;;;;;;;19.60;99.90;;;;;;7330546;19;110473;-73
2023/07/12 05:31:04;;;;;;;;;;;19.60;99.90;;;;;;7333142;19;109072;-71
2023/07/12 05:33:31;;;;;;;;;;;19.50;99.90;;;;;;7335945;19;109775;-70
2023/07/12 05:36:01;;;;;;;;;;;19.60;99.90;;;;;;7332075;19;108395;-77
2023/07/12 05:38:29;;;;;;;;;;;19.60;99.90;;;;;;7336358;19;109619;-75
2023/07/12 05:40:59;;;;;;;;;;;19.60;99.90;;;;;;7336964;19;108960;-75
2023/07/12 05:43:26;;;;;;;;;;;19.60;99.90;;;;;;7337581;19;108677;-71
2023/07/12 05:45:57;;;;;;;;;;;19.60;99.90;;;;;;7334351;19;109820;-71
2023/07/12 05:48:25;;;;;;;;;;;19.70;99.90;;;;;;7336220;19;110985;-69
2023/07/12 05:50:53;;;;;;;;;;;19.60;99.90;;;;;;7334728;19;108873;-69
2023/07/12 05:53:20;;;;;;;;;;;19.70;99.90;;;;;;7329983;19;109119;-68
2023/07/12 05:55:53;;;;;;;;;;;19.70;99.90;;;;;;7341121;19;109222;-69
2023/07/12 05:58:29;;;;;;;;;;;19.70;99.90;;;;;;7334717;19;109704;-66
2023/07/12 06:00:58;;;;;;;;;;;19.70;99.90;;;;;;7332738;19;111218;-67
2023/07/12 06:03:37;;;;;;;;;;;19.80;99.90;;;;;;7334336;19;109489;-67
2023/07/12 06:06:08;;;;;;;;;;;19.80;99.90;;;;;;7336100;19;109823;-66
2023/07/12 06:08:35;;;;;;;;;;;19.90;99.90;;;;;;7336325;19;110002;-66
2023/07/12 06:11:03;;;;;;;;;;;19.90;99.90;;;;;;7334321;19;110388;-86
2023/07/12 06:13:37;;;;;;;;;;;20.00;99.90;;;;;;7330639;19;110642;-66
2023/07/12 06:16:06;;;;;;;;;;;20.00;99.90;;;;;;7336010;19;108593;-66
2023/07/12 06:18:33;;;;;;;;;;;20.00;99.90;;;;;;7342062;19;108748;-65
2023/07/12 06:21:02;;;;;;;;;;;20.10;99.90;;;;;;7336860;19;108545;-68
2023/07/12 06:23:29;;;;;;;;;;;20.10;99.90;;;;;;7335838;19;109052;-65
2023/07/12 06:25:57;;;;;;;;;;;20.10;99.90;;;;;;7333483;19;109168;-66
2023/07/12 06:28:25;;;;;;;;;;;20.10;99.90;;;;;;7329932;19;108595;-65
2023/07/12 06:30:52;;;;;;;;;;;20.20;99.90;;;;;;7336303;19;108907;-65
2023/07/12 06:33:20;;;;;;;;;;;20.20;99.90;;;;;;7335270;19;110664;-65
2023/07/12 06:35:47;;;;;;;;;;;20.10;99.90;;;;;;7336656;19;108796;-65
2023/07/12 06:38:16;;;;;;;;;;;20.20;99.90;;;;;;7339737;19;109344;-65
2023/07/12 06:43:25;;;;;;;;;;;20.30;99.90;;;;;;7325351;19;110481;-65
2023/07/12 06:45:52;;;;;;;;;;;20.40;99.90;;;;;;7332975;19;110035;-65
2023/07/12 06:48:19;;;;;;;;;;;20.50;99.90;;;;;;7334260;19;109019;-65
2023/07/12 06:50:47;;;;;;;;;;;20.60;99.90;;;;;;7332754;19;108970;-65
2023/07/12 06:53:14;;;;;;;;;;;20.70;99.90;;;;;;7337440;19;110416;-65
2023/07/12 06:55:45;;;;;;;;;;;20.70;99.90;;;;;;7333465;19;110559;-66
2023/07/12 06:58:12;;;;;;;;;;;20.70;99.90;;;;;;7335675;19;109672;-65
2023/07/12 07:00:40;;;;;;;;;;;20.80;99.90;;;;;;7339637;19;111933;-65
2023/07/12 07:03:09;;;;;;;;;;;20.70;99.90;;;;;;7335100;19;109789;-66
2023/07/12 07:05:38;;;;;;;;;;;20.80;99.90;;;;;;7332593;19;109792;-65
2023/07/12 07:08:06;;;;;;;;;;;20.80;99.90;;;;;;7334169;19;109127;-66
2023/07/12 07:10:34;;;;;;;;;;;20.80;99.90;;;;;;7333981;19;108792;-64
2023/07/12 07:13:01;;;;;;;;;;;20.80;99.90;;;;;;7336119;19;108901;-65
2023/07/12 07:15:28;;;;;;;;;;;20.80;99.90;;;;;;7336566;19;109010;-65
2023/07/12 07:17:55;;;;;;;;;;;20.90;99.90;;;;;;7334004;19;108768;-65
2023/07/12 07:20:22;;;;;;;;;;;21.00;99.90;;;;;;7335815;19;110122;-65
2023/07/12 07:22:49;;;;;;;;;;;21.10;99.90;;;;;;7341352;19;109760;-65
2023/07/12 07:25:17;;;;;;;;;;;21.10;99.90;;;;;;7335045;19;109091;-65
2023/07/12 07:27:47;;;;;;;;;;;21.10;99.90;;;;;;7336039;19;109065;-65
2023/07/12 07:30:16;;;;;;;;;;;21.10;99.90;;;;;;7336356;19;109243;-65
2023/07/12 07:32:43;;;;;;;;;;;21.20;99.90;;;;;;7332451;19;109828;-65
2023/07/12 07:35:11;;;;;;;;;;;21.20;99.90;;;;;;7333382;19;108671;-65
2023/07/12 07:37:39;;;;;;;;;;;21.20;99.90;;;;;;7334843;19;108679;-65
2023/07/12 07:40:07;;;;;;;;;;;21.30;99.90;;;;;;7335872;19;109047;-65
2023/07/12 07:42:36;;;;;;;;;;;21.30;99.90;;;;;;7332332;19;111086;-66
2023/07/12 07:45:03;;;;;;;;;;;21.30;99.90;;;;;;7341489;19;109333;-65
2023/07/12 07:47:31;;;;;;;;;;;21.40;99.90;;;;;;7332654;19;110059;-64
2023/07/12 07:49:58;;;;;;;;;;;21.40;99.90;;;;;;7336858;19;110842;-65
2023/07/12 07:52:25;;;;;;;;;;;21.40;99.90;;;;;;7333931;19;109256;-65
2023/07/12 07:54:53;;;;;;;;;;;21.40;99.90;;;;;;7331711;19;109196;-65
2023/07/12 07:57:20;;;;;;;;;;;21.40;99.90;;;;;;7338764;19;108999;-66
2023/07/12 07:59:47;;;;;;;;;;;21.50;99.90;;;;;;7336437;19;110168;-65
2023/07/12 08:02:14;;;;;;;;;;;21.50;99.90;;;;;;7333273;19;110497;-65
2023/07/12 08:04:41;;;;;;;;;;;21.50;99.90;;;;;;7334133;19;108765;-73
2023/07/12 08:07:10;;;;;;;;;;;21.60;99.90;;;;;;7336869;19;109633;-71
2023/07/12 08:09:37;;;;;;;;;;;21.60;99.90;;;;;;7334102;19;108857;-68
2023/07/12 08:12:07;;;;;;;;;;;21.60;99.90;;;;;;7329149;19;110496;-68
2023/07/12 08:14:34;;;;;;;;;;;21.70;99.90;;;;;;7331588;19;108797;-66
2023/07/12 08:17:01;;;;;;;;;;;21.80;99.90;;;;;;7334104;19;108623;-67
2023/07/12 08:19:28;;;;;;;;;;;21.90;99.90;;;;;;7328824;19;110043;-69
2023/07/12 08:21:55;;;;;;;;;;;21.90;99.90;;;;;;7332485;19;109197;-66
2023/07/12 08:24:22;;;;;;;;;;;21.90;99.90;;;;;;7331053;19;108650;-67
2023/07/12 08:26:49;;;;;;;;;;;21.90;99.90;;;;;;7327243;19;110405;-66
2023/07/12 08:29:33;;;;;;;;;;;22.00;99.90;;;;;;7338491;19;108728;-65
2023/07/12 08:32:00;;;;;;;;;;;22.00;99.90;;;;;;7332802;19;109210;-65
2023/07/12 08:34:31;;;;;;;;;;;22.00;99.90;;;;;;7332639;19;108774;-65
2023/07/12 08:36:58;;;;;;;;;;;22.00;99.90;;;;;;7333340;19;109057;-65
2023/07/12 08:39:25;;;;;;;;;;;22.10;99.90;;;;;;7330937;19;109416;-65
2023/07/12 08:41:52;;;;;;;;;;;22.20;99.90;;;;;;7333995;19;108839;-66
2023/07/12 08:44:20;;;;;;;;;;;22.30;99.90;;;;;;7328905;19;109596;-65
2023/07/12 08:46:55;;;;;;;;;;;22.30;99.90;;;;;;7331380;19;110178;-67
2023/07/12 08:49:23;;;;;;;;;;;22.40;99.90;;;;;;7336767;19;108992;-65
2023/07/12 08:51:52;;;;;;;;;;;22.40;99.90;;;;;;7329277;19;109833;-66
2023/07/12 08:54:22;;;;;;;;;;;22.50;99.90;;;;;;7329510;19;108624;-66
2023/07/12 08:56:50;;;;;;;;;;;22.60;99.90;;;;;;7328217;19;109514;-66
2023/07/12 08:59:18;;;;;;;;;;;22.70;99.90;;;;;;7327112;19;109094;-65
2023/07/12 09:01:53;;;;;;;;;;;22.70;99.90;;;;;;7330945;19;109547;-65
2023/07/12 09:04:22;;;;;;;;;;;22.70;99.90;;;;;;7329537;19;108793;-66
2023/07/12 09:06:56;;;;;;;;;;;22.70;99.90;;;;;;7330480;19;109182;-65
2023/07/12 09:09:27;;;;;;;;;;;22.70;99.90;;;;;;7330380;19;110774;-65
2023/07/12 09:11:55;;;;;;;;;;;22.80;99.90;;;;;;7335498;19;108533;-66
2023/07/12 09:14:24;;;;;;;;;;;22.90;99.90;;;;;;7334693;19;109866;-65
2023/07/12 09:16:55;;;;;;;;;;;23.00;99.90;;;;;;7335922;19;108355;-65
2023/07/12 09:19:25;;;;;;;;;;;23.10;99.90;;;;;;7333961;19;109166;-66
2023/07/12 09:21:57;;;;;;;;;;;23.20;99.90;;;;;;7337274;19;110144;-65
2023/07/12 09:24:26;;;;;;;;;;;23.40;99.90;;;;;;7337796;19;109033;-66
2023/07/12 09:27:03;;;;;;;;;;;23.40;99.90;;;;;;7333923;19;110124;-65
2023/07/12 09:29:31;;;;;;;;;;;23.40;99.90;;;;;;7338270;19;110298;-65
2023/07/12 09:32:01;;;;;;;;;;;23.40;99.90;;;;;;7338377;19;109319;-65
2023/07/12 09:34:36;;;;;;;;;;;23.50;99.90;;;;;;7339619;19;109960;-65
2023/07/12 09:37:04;;;;;;;;;;;23.60;99.90;;;;;;7337218;19;108501;-67
2023/07/12 09:39:31;;;;;;;;;;;23.60;99.90;;;;;;7336261;19;109382;-67
2023/07/12 09:41:59;;;;;;;;;;;23.60;99.90;;;;;;7336603;19;110022;-67
2023/07/12 09:44:31;;;;;;;;;;;23.70;99.90;;;;;;7336360;19;109946;-67
2023/07/12 09:47:11;;;;;;;;;;;23.90;99.90;;;;;;7335224;19;109241;-67
2023/07/12 09:49:42;;;;;;;;;;;24.00;99.90;;;;;;7336351;19;109787;-66
2023/07/12 09:52:10;;;;;;;;;;;24.20;99.90;;;;;;7333195;19;108521;-67
2023/07/12 09:54:57;;;;;;;;;;;24.10;99.90;;;;;;7333845;19;109274;-67
2023/07/12 09:57:42;;;;;;;;;;;24.20;99.90;;;;;;7336843;19;109631;-68
2023/07/12 10:00:11;;;;;;;;;;;24.30;99.90;;;;;;7334731;19;109891;-67
2023/07/12 10:03:02;;;;;;;;;;;24.50;99.90;;;;;;7333323;19;109902;-67
2023/07/12 10:05:30;;;;;;;;;;;24.60;99.90;;;;;;7331095;19;108737;-66
2023/07/12 10:07:59;;;;;;;;;;;24.50;99.90;;;;;;7334671;19;109448;-67
2023/07/12 10:10:42;;;;;;;;;;;24.40;99.90;;;;;;7332920;19;109618;-67
2023/07/12 10:13:38;;;;;;;;;;;24.30;99.90;;;;;;7338963;19;109323;-67
2023/07/12 10:16:09;;;;;;;;;;;24.30;99.90;;;;;;7334741;19;109269;-67
2023/07/12 10:18:37;;;;;;;;;;;24.40;99.90;;;;;;7338322;19;108404;-67
2023/07/12 10:21:06;;;;;;;;;;;24.50;99.90;;;;;;7339778;19;108696;-66
2023/07/12 10:23:41;;;;;;;;;;;24.50;99.90;;;;;;7335142;19;109340;-67
2023/07/12 10:26:10;;;;;;;;;;;24.60;99.90;;;;;;7336099;19;109118;-68
2023/07/12 10:28:47;;;;;;;;;;;24.70;99.90;;;;;;7337127;19;109514;-67
2023/07/12 10:31:21;;;;;;;;;;;24.70;99.90;;;;;;7333947;19;109109;-67
2023/07/12 10:33:50;;;;;;;;;;;24.60;99.90;;;;;;7338694;19;109157;-68
2023/07/12 10:36:21;;;;;;;;;;;24.50;99.90;;;;;;7334664;19;109110;-67
2023/07/12 10:38:48;;;;;;;;;;;24.40;99.90;;;;;;7334585;19;109037;-68
2023/07/12 10:41:30;;;;;;;;;;;24.30;99.90;;;;;;7336531;19;108696;-67
2023/07/12 10:44:08;;;;;;;;;;;24.30;99.90;;;;;;7341017;19;110352;-68
2023/07/12 10:46:41;;;;;;;;;;;24.40;99.90;;;;;;7336133;19;109157;-67
2023/07/12 10:49:16;;;;;;;;;;;24.50;99.90;;;;;;7335233;19;112020;-68
2023/07/12 10:52:22;;;;;;;;;;;24.60;99.90;;;;;;7334113;19;108991;-67
2023/07/12 10:55:06;;;;;;;;;;;24.70;99.90;;;;;;7331277;19;108881;-70
2023/07/12 10:57:37;;;;;;;;;;;24.80;99.90;;;;;;7332429;19;110354;-67
2023/07/12 11:00:31;;;;;;;;;;;24.90;99.90;;;;;;7331029;19;110905;-68
2023/07/12 11:03:13;;;;;;;;;;;25.00;99.90;;;;;;7325775;19;109712;-67
2023/07/12 11:05:59;;;;;;;;;;;25.10;99.90;;;;;;7331432;19;109108;-68
2023/07/12 11:08:32;;;;;;;;;;;25.00;99.90;;;;;;7328269;19;109503;-68
2023/07/12 11:11:08;;;;;;;;;;;24.90;99.90;;;;;;7322106;19;110743;-67
2023/07/12 11:13:41;;;;;;;;;;;24.90;99.90;;;;;;7331275;19;108841;-67
2023/07/12 11:16:16;;;;;;;;;;;25.00;99.90;;;;;;7331594;19;109313;-68
2023/07/12 11:18:50;;;;;;;;;;;25.10;99.90;;;;;;7328349;19;109966;-68
2023/07/12 11:21:36;;;;;;;;;;;25.30;99.90;;;;;;7331205;19;109892;-68
2023/07/12 11:24:24;;;;;;;;;;;25.40;99.90;;;;;;7330594;19;109088;-68
2023/07/12 11:26:56;;;;;;;;;;;25.50;99.90;;;;;;7334115;19;109463;-68
2023/07/12 11:29:30;;;;;;;;;;;25.60;99.90;;;;;;7339822;19;108844;-67
2023/07/12 11:32:18;;;;;;;;;;;25.70;99.60;;;;;;7331569;19;110482;-67
2023/07/12 11:34:46;;;;;;;;;;;25.70;98.70;;;;;;7331184;19;110755;-68
2023/07/12 11:37:21;;;;;;;;;;;25.80;99.40;;;;;;7333525;19;109500;-68
2023/07/12 11:39:48;;;;;;;;;;;25.90;98.90;;;;;;7335768;19;109634;-67
2023/07/12 11:42:26;;;;;;;;;;;26.00;97.20;;;;;;7332281;19;108645;-67
2023/07/12 11:45:00;;;;;;;;;;;26.00;97.70;;;;;;7335217;19;109430;-66
2023/07/12 11:47:30;;;;;;;;;;;26.10;97.90;;;;;;7333860;19;109183;-67
2023/07/12 11:49:59;;;;;;;;;;;26.30;97.20;;;;;;7335963;19;109278;-66
2023/07/12 11:52:26;;;;;;;;;;;26.40;96.90;;;;;;7336019;19;110412;-65
2023/07/12 11:54:54;;;;;;;;;;;26.50;97.20;;;;;;7334614;19;109745;-64
2023/07/12 11:57:21;;;;;;;;;;;26.50;97.10;;;;;;7332920;19;109088;-65
2023/07/12 11:59:50;;;;;;;;;;;26.50;95.50;;;;;;7334290;19;109084;-64
2023/07/12 12:02:19;;;;;;;;;;;26.40;95.80;;;;;;7331885;19;108598;-64
2023/07/12 12:04:48;;;;;;;;;;;26.40;95.10;;;;;;7337720;19;108499;-65
2023/07/12 12:07:22;;;;;;;;;;;26.30;95.10;;;;;;7333076;19;109808;-64
2023/07/12 12:09:50;;;;;;;;;;;26.30;95.10;;;;;;7333796;19;110469;-64
2023/07/12 12:12:21;;;;;;;;;;;26.30;95.40;;;;;;7332577;19;108552;-64
2023/07/12 12:14:50;;;;;;;;;;;26.20;95.50;;;;;;7338295;19;110268;-64
2023/07/12 12:17:24;;;;;;;;;;;26.20;95.90;;;;;;7332791;19;109007;-64
2023/07/12 12:20:05;;;;;;;;;;;26.30;95.90;;;;;;7332908;19;109719;-64
2023/07/12 12:22:33;;;;;;;;;;;26.50;95.80;;;;;;7333431;19;111612;-64
2023/07/12 12:25:01;;;;;;;;;;;26.70;95.30;;;;;;7333134;19;108718;-65
2023/07/12 12:27:35;;;;;;;;;;;26.80;94.50;;;;;;7330260;19;109400;-64
2023/07/12 12:30:25;;;;;;;;;;;26.90;94.60;;;;;;7332861;19;108470;-65
2023/07/12 12:32:56;;;;;;;;;;;26.90;94.30;;;;;;7331540;19;108798;-65
2023/07/12 12:35:23;;;;;;;;;;;26.70;94.10;;;;;;7331975;19;109591;-64
2023/07/12 12:37:54;;;;;;;;;;;26.60;94.20;;;;;;7337393;19;108848;-64
2023/07/12 12:40:24;;;;;;;;;;;26.40;94.40;;;;;;7330088;19;110738;-65
2023/07/12 12:43:01;;;;;;;;;;;26.30;94.90;;;;;;7331049;19;108901;-64
2023/07/12 12:45:31;;;;;;;;;;;26.50;95.50;;;;;;7332072;19;109511;-64
2023/07/12 12:47:59;;;;;;;;;;;26.60;95.50;;;;;;7334094;19;110328;-63
2023/07/12 12:50:36;;;;;;;;;;;26.80;95.20;;;;;;7337034;19;109813;-65
2023/07/12 12:53:11;;;;;;;;;;;27.00;95.10;;;;;;7337498;19;110068;-65
2023/07/12 12:55:58;;;;;;;;;;;27.10;95.50;;;;;;7338225;19;109730;-64
2023/07/12 12:58:28;;;;;;;;;;;27.30;94.90;;;;;;7337873;19;108777;-64
2023/07/12 13:01:18;;;;;;;;;;;27.30;94.60;;;;;;7345687;19;109858;-64
2023/07/12 13:03:50;;;;;;;;;;;27.20;94.50;;;;;;7339003;19;109635;-65
2023/07/12 13:06:41;;;;;;;;;;;27.10;94.10;;;;;;7336471;19;119605;-64
2023/07/12 13:09:15;;;;;;;;;;;26.90;93.70;;;;;;7333351;19;109666;-65
2023/07/12 13:11:45;;;;;;;;;;;26.90;94.70;;;;;;7332931;19;112640;-65
2023/07/12 13:14:32;;;;;;;;;;;26.70;93.90;;;;;;7334888;19;108462;-65
2023/07/12 13:17:03;;;;;;;;;;;26.70;93.80;;;;;;7334569;19;110124;-64
2023/07/12 13:19:51;;;;;;;;;;;26.50;93.90;;;;;;7333440;19;109022;-65
2023/07/12 13:22:23;;;;;;;;;;;26.40;93.50;;;;;;7343390;19;108800;-65
2023/07/12 13:24:52;;;;;;;;;;;26.30;93.70;;;;;;7337276;19;108541;-65
2023/07/12 13:27:21;;;;;;;;;;;26.20;93.60;;;;;;7338489;19;109814;-65
2023/07/12 13:29:50;;;;;;;;;;;26.10;94.00;;;;;;7336645;19;109672;-65
2023/07/12 13:32:18;;;;;;;;;;;26.10;93.80;;;;;;7338065;19;108938;-66
2023/07/12 13:34:45;;;;;;;;;;;26.10;94.20;;;;;;7334789;19;110494;-65
2023/07/12 13:37:35;;;;;;;;;;;26.10;93.70;;;;;;7338434;19;109504;-65
2023/07/12 13:40:26;;;;;;;;;;;26.10;93.30;;;;;;7339094;19;109262;-65
2023/07/12 13:43:00;;;;;;;;;;;26.10;93.00;;;;;;7337792;19;109413;-65
2023/07/12 13:45:34;;;;;;;;;;;25.90;92.50;;;;;;7341444;19;109440;-66
2023/07/12 13:48:02;;;;;;;;;;;25.80;93.30;;;;;;7333116;19;110252;-65
2023/07/12 13:50:29;;;;;;;;;;;25.80;93.20;;;;;;7338454;19;109921;-66
2023/07/12 13:52:58;;;;;;;;;;;25.70;93.30;;;;;;7338236;19;109243;-65
2023/07/12 13:55:25;;;;;;;;;;;25.70;93.10;;;;;;7336031;19;109194;-65
2023/07/12 13:57:53;;;;;;;;;;;25.80;93.70;;;;;;7336978;19;109934;-65
2023/07/12 14:00:20;;;;;;;;;;;26.00;94.10;;;;;;7333024;19;109150;-65
2023/07/12 14:02:51;;;;;;;;;;;26.20;93.50;;;;;;7335048;19;109576;-65
2023/07/12 14:05:32;;;;;;;;;;;26.50;93.90;;;;;;7338243;19;109606;-65
2023/07/12 14:08:03;;;;;;;;;;;26.80;93.50;;;;;;7338086;19;108599;-65
2023/07/12 14:10:33;;;;;;;;;;;27.00;92.30;;;;;;7336214;19;108779;-65
2023/07/12 14:13:00;;;;;;;;;;;27.10;91.80;;;;;;7333551;19;108951;-65
2023/07/12 14:15:31;;;;;;;;;;;27.00;92.00;;;;;;7338369;19;108668;-65
2023/07/12 14:17:58;;;;;;;;;;;27.00;92.00;;;;;;7333453;19;109381;-65
2023/07/12 14:20:26;;;;;;;;;;;27.00;91.70;;;;;;7336763;19;109181;-65
2023/07/12 14:22:54;;;;;;;;;;;26.90;91.60;;;;;;7335435;19;109255;-65